createdAt,value
2023-01-15T00:00:01.283Z,99638.34
2023-01-15T00:02:33.857Z,99647.44
2023-01-15T00:05:07.413Z,99646.94
2023-01-15T00:07:40.038Z,99640.63
2023-01-15T00:10:12.601Z,99633.50
2023-01-15T00:12:45.192Z,99637.31
2023-01-15T00:15:17.876Z,99628.66
2023-01-15T00:17:50.562Z,99634.25
2023-01-15T00:20:23.129Z,99631.19
2023-01-15T00:22:55.715Z,99625.63
2023-01-15T00:25:47.167Z,99643.66
2023-01-15T00:28:19.774Z,99625.84
2023-01-15T00:30:52.403Z,99618.25
2023-01-15T00:33:24.930Z,99627.91
2023-01-15T00:35:57.483Z,99631.97
2023-01-15T00:38:30.192Z,99620.03
2023-01-15T00:41:02.741Z,99610.38
2023-01-15T00:43:35.484Z,99609.88
2023-01-15T00:46:11.032Z,99641.84
2023-01-15T00:48:43.554Z,99649.47
2023-01-15T00:51:16.123Z,99635.25
2023-01-15T00:53:48.854Z,99653.25
2023-01-15T00:56:21.506Z,99664.94
2023-01-15T00:58:54.284Z,99665.94
2023-01-15T01:01:27.003Z,99667.19
2023-01-15T01:04:00.058Z,99656.56
2023-01-15T01:06:32.825Z,99657.06
2023-01-15T01:09:05.567Z,99653.75
2023-01-15T01:11:38.127Z,99653.50
2023-01-15T01:14:12.537Z,99652.97
2023-01-15T01:16:45.382Z,99664.16
2023-01-15T01:19:22.519Z,99661.63
2023-01-15T01:21:55.488Z,99662.59
2023-01-15T01:24:28.212Z,99664.16
2023-01-15T01:27:00.901Z,99660.59
2023-01-15T01:29:33.540Z,99670.69
2023-01-15T01:32:06.112Z,99658.78
2023-01-15T01:34:39.991Z,99645.56
2023-01-15T01:37:12.547Z,99650.41
2023-01-15T01:39:45.454Z,99661.28
2023-01-15T01:42:18.519Z,99658.25
2023-01-15T01:44:50.943Z,99663.81
2023-01-15T01:47:28.130Z,99667.13
2023-01-15T01:50:11.509Z,99659.00
2023-01-15T01:52:54.045Z,99664.09
2023-01-15T01:55:29.554Z,99664.09
2023-01-15T01:58:07.704Z,99654.69
2023-01-15T02:00:48.291Z,99660.78
2023-01-15T02:03:26.180Z,99663.56
2023-01-15T02:06:11.657Z,99662.03
2023-01-15T02:08:44.365Z,99649.09
2023-01-15T02:11:22.158Z,99658.72
2023-01-15T02:14:07.833Z,99658.97
2023-01-15T02:17:09.896Z,99668.84
2023-01-15T02:20:01.899Z,99670.13
2023-01-15T02:23:11.069Z,99667.59
2023-01-15T02:26:24.372Z,99667.59
2023-01-15T02:29:01.017Z,99661.25
2023-01-15T02:31:44.055Z,99654.13
2023-01-15T02:34:20.960Z,99652.63
2023-01-15T02:37:08.801Z,99648.28
2023-01-15T02:39:45.881Z,99639.41
2023-01-15T02:42:22.325Z,99639.66
2023-01-15T02:45:00.191Z,99636.63
2023-01-15T02:47:37.704Z,99633.03
2023-01-15T02:50:20.399Z,99629.25
2023-01-15T02:53:05.553Z,99629.25
2023-01-15T02:55:47.342Z,99626.47
2023-01-15T02:58:32.335Z,99625.19
2023-01-15T03:01:15.701Z,99624.16
2023-01-15T03:04:25.578Z,99627.00
2023-01-15T03:07:14.763Z,99627.72
2023-01-15T03:09:50.328Z,99640.16
2023-01-15T03:13:03.997Z,99639.88
2023-01-15T03:16:14.439Z,99639.63
2023-01-15T03:18:58.759Z,99636.84
2023-01-15T03:22:05.051Z,99637.59
2023-01-15T03:24:44.629Z,99636.56
2023-01-15T03:27:17.687Z,99629.47
2023-01-15T03:30:07.709Z,99642.16
2023-01-15T03:32:41.517Z,99620.31
2023-01-15T03:35:53.346Z,99638.13
2023-01-15T03:38:35.539Z,99619.31
2023-01-15T03:41:35.815Z,99623.38
2023-01-15T03:44:37.379Z,99622.38
2023-01-15T03:47:32.827Z,99621.84
2023-01-15T03:50:41.576Z,99633.00
2023-01-15T03:53:45.822Z,99632.00
2023-01-15T03:56:29.777Z,99623.59
2023-01-15T03:59:18.048Z,99626.88
2023-01-15T04:01:54.088Z,99632.22
2023-01-15T04:04:28.546Z,99618.50
2023-01-15T04:07:04.019Z,99627.38
2023-01-15T04:09:41.102Z,99627.16
2023-01-15T04:12:13.948Z,99615.22
2023-01-15T04:14:46.602Z,99627.63
2023-01-15T04:17:19.207Z,99634.50
2023-01-15T04:19:51.721Z,99632.19
2023-01-15T04:22:24.355Z,99627.38
2023-01-15T04:24:57.257Z,99630.16
2023-01-15T04:27:29.998Z,99624.84
2023-01-15T04:30:02.788Z,99616.47
2023-01-15T04:32:35.512Z,99623.56
2023-01-15T04:35:08.503Z,99611.38
2023-01-15T04:37:40.993Z,99615.94
2023-01-15T04:40:34.209Z,99625.34
2023-01-15T04:43:25.206Z,99625.34
2023-01-15T04:45:58.861Z,99627.84
2023-01-15T04:48:31.629Z,99641.31
2023-01-15T04:51:05.826Z,99647.38
2023-01-15T04:53:38.726Z,99635.47
2023-01-15T04:56:11.466Z,99647.09
2023-01-15T04:58:44.077Z,99640.78
2023-01-15T05:01:19.573Z,99651.91
2023-01-15T05:03:52.264Z,99648.13
2023-01-15T05:06:26.527Z,99639.75
2023-01-15T05:09:02.043Z,99630.16
2023-01-15T05:11:38.295Z,99636.19
2023-01-15T05:14:10.985Z,99638.69
2023-01-15T05:16:44.395Z,99643.50
2023-01-15T05:19:17.183Z,99643.25
2023-01-15T05:21:58.163Z,99648.56
2023-01-15T05:24:30.751Z,99640.47
2023-01-15T05:30:02.406Z,99631.84
2023-01-15T05:32:35.018Z,99636.88
2023-01-15T05:35:08.325Z,99640.94
2023-01-15T05:37:40.927Z,99639.94
2023-01-15T05:40:13.794Z,99630.06
2023-01-15T05:42:46.460Z,99630.78
2023-01-15T05:45:18.968Z,99629.78
2023-01-15T05:47:53.671Z,99625.97
2023-01-15T05:50:28.978Z,99637.13
2023-01-15T05:53:01.759Z,99624.94
2023-01-15T05:55:34.282Z,99621.91
2023-01-15T05:58:06.899Z,99634.81
2023-01-15T06:00:39.452Z,99640.41
2023-01-15T06:03:12.001Z,99621.38
2023-01-15T06:05:51.533Z,99619.66
2023-01-15T06:08:24.269Z,99630.25
2023-01-15T06:10:57.148Z,99619.88
2023-01-15T06:13:29.661Z,99637.34
2023-01-15T06:16:03.049Z,99645.22
2023-01-15T06:18:35.641Z,99643.47
2023-01-15T06:21:13.674Z,99652.56
2023-01-15T06:23:46.929Z,99650.81
2023-01-15T06:26:19.426Z,99656.66
2023-01-15T06:28:52.893Z,99659.97
2023-01-15T06:31:27.099Z,99653.41
2023-01-15T06:33:59.795Z,99648.34
2023-01-15T06:36:32.467Z,99650.16
2023-01-15T06:39:05.418Z,99651.94
2023-01-15T06:41:57.158Z,99659.59
2023-01-15T06:44:48.553Z,99664.94
2023-01-15T06:47:22.728Z,99658.88
2023-01-15T06:50:05.434Z,99656.91
2023-01-15T06:52:38.073Z,99661.97
2023-01-15T06:55:11.655Z,99662.78
2023-01-15T06:57:45.293Z,99661.03
2023-01-15T07:00:18.572Z,99666.13
2023-01-15T07:02:51.214Z,99662.09
2023-01-15T07:05:24.057Z,99660.59
2023-01-15T07:07:58.478Z,99682.47
2023-01-15T07:10:31.188Z,99683.47
2023-01-15T07:13:03.785Z,99683.00
2023-01-15T07:15:39.734Z,99680.69
2023-01-15T07:18:12.397Z,99679.97
2023-01-15T07:20:44.973Z,99667.78
2023-01-15T07:23:17.766Z,99678.22
2023-01-15T07:25:51.952Z,99678.44
2023-01-15T07:28:25.055Z,99693.44
2023-01-15T07:30:58.917Z,99706.66
2023-01-15T07:33:31.495Z,99698.78
2023-01-15T07:36:06.302Z,99709.47
2023-01-15T07:38:38.926Z,99699.78
2023-01-15T07:41:30.205Z,99704.34
2023-01-15T07:44:21.587Z,99718.59
2023-01-15T07:47:12.762Z,99717.34
2023-01-15T07:49:45.796Z,99720.88
2023-01-15T07:52:21.467Z,99724.44
2023-01-15T07:55:02.340Z,99707.94
2023-01-15T07:57:37.453Z,99736.63
2023-01-15T08:00:19.166Z,99717.06
2023-01-15T08:02:52.307Z,99729.28
2023-01-15T08:05:24.832Z,99729.28
2023-01-15T08:07:57.499Z,99725.22
2023-01-15T08:10:30.376Z,99729.53
2023-01-15T08:13:21.436Z,99737.66
2023-01-15T08:15:54.136Z,99728.00
2023-01-15T08:18:26.792Z,99721.91
2023-01-15T08:20:59.364Z,99728.25
2023-01-15T08:23:32.083Z,99736.13
2023-01-15T08:26:06.077Z,99740.19
2023-01-15T08:28:38.758Z,99740.19
2023-01-15T08:31:11.524Z,99742.47
2023-01-15T08:33:44.187Z,99739.19
2023-01-15T08:36:18.183Z,99743.00
2023-01-15T08:38:50.838Z,99748.59
2023-01-15T08:41:23.479Z,99735.88
2023-01-15T08:43:56.215Z,99738.91
2023-01-15T08:46:28.803Z,99728.50
2023-01-15T08:49:01.395Z,99746.06
2023-01-15T08:51:33.951Z,99731.81
2023-01-15T08:54:06.637Z,99740.97
2023-01-15T08:56:39.146Z,99739.69
2023-01-15T08:59:12.050Z,99738.91
2023-01-15T09:01:45.579Z,99713.50
2023-01-15T09:04:21.730Z,99710.97
2023-01-15T09:06:54.705Z,99708.44
2023-01-15T09:09:27.376Z,99716.56
2023-01-15T09:12:00.043Z,99720.38
2023-01-15T09:14:57.888Z,99714.03
2023-01-15T09:17:25.276Z,99702.09
2023-01-15T09:19:57.891Z,99708.44
2023-01-15T09:22:31.226Z,99713.28
2023-01-15T09:25:04.904Z,99696.00
2023-01-15T09:27:38.060Z,99702.84
2023-01-15T09:30:20.669Z,99712.25
2023-01-15T09:32:53.200Z,99695.47
2023-01-15T09:35:25.866Z,99713.28
2023-01-15T09:37:58.544Z,99713.03
2023-01-15T09:40:59.601Z,99703.88
2023-01-15T09:44:02.700Z,99701.84
2023-01-15T09:46:57.246Z,99714.53
2023-01-15T09:50:03.784Z,99720.91
2023-01-15T09:53:00.493Z,99724.69
2023-01-15T09:55:42.618Z,99735.88
2023-01-15T09:58:20.579Z,99735.38
2023-01-15T10:00:53.253Z,99749.84
2023-01-15T10:03:51.238Z,99746.06
2023-01-15T10:06:50.070Z,99753.44
2023-01-15T10:09:37.583Z,99751.88
2023-01-15T10:12:36.244Z,99749.34
2023-01-15T10:15:32.629Z,99766.88
2023-01-15T10:18:08.210Z,99749.59
2023-01-15T10:21:18.096Z,99758.25
2023-01-15T10:24:37.737Z,99763.09
2023-01-15T10:27:25.076Z,99768.41
2023-01-15T10:30:16.632Z,99767.13
2023-01-15T10:33:02.878Z,99761.03
2023-01-15T10:36:13.750Z,99765.38
2023-01-15T10:39:10.379Z,99770.44
2023-01-15T10:42:28.682Z,99758.50
2023-01-15T10:45:24.474Z,99749.09
2023-01-15T10:48:32.693Z,99747.06
2023-01-15T10:51:18.329Z,99746.28
2023-01-15T10:53:56.739Z,99738.41
2023-01-15T10:56:41.075Z,99741.22
2023-01-15T10:59:47.747Z,99752.66
2023-01-15T11:02:47.361Z,99749.59
2023-01-15T11:05:21.706Z,99752.38
2023-01-15T11:08:19.802Z,99741.72
2023-01-15T11:10:47.372Z,99735.13
2023-01-15T11:13:38.196Z,99745.03
2023-01-15T11:16:37.038Z,99729.28
2023-01-15T11:19:42.173Z,99770.44
2023-01-15T11:22:20.100Z,99778.31
2023-01-15T11:25:00.220Z,99757.72
2023-01-15T11:27:35.831Z,99760.75
2023-01-15T11:30:32.292Z,99748.59
2023-01-15T11:33:20.702Z,99750.59
2023-01-15T11:36:04.344Z,99771.69
2023-01-15T11:38:47.538Z,99754.91
2023-01-15T11:41:50.495Z,99754.91
2023-01-15T11:44:42.711Z,99751.34
2023-01-15T11:47:37.425Z,99764.84
2023-01-15T11:50:37.385Z,99742.75
2023-01-15T11:53:19.248Z,99762.03
2023-01-15T11:56:07.049Z,99762.56
2023-01-15T11:58:47.640Z,99771.94
2023-01-15T12:01:31.005Z,99763.81
2023-01-15T12:04:22.615Z,99766.59
2023-01-15T12:06:55.707Z,99758.22
2023-01-15T12:09:51.113Z,99764.31
2023-01-15T12:13:06.614Z,99751.38
2023-01-15T12:15:55.229Z,99763.84
2023-01-15T12:18:41.965Z,99758.75
2023-01-15T12:21:37.062Z,99760.53
2023-01-15T12:24:53.634Z,99748.84
2023-01-15T12:27:44.774Z,99749.84
2023-01-15T12:30:44.240Z,99760.03
2023-01-15T12:33:44.735Z,99743.78
2023-01-15T12:36:41.691Z,99733.34
2023-01-15T12:39:24.915Z,99737.41
2023-01-15T12:42:29.994Z,99734.88
2023-01-15T12:45:08.616Z,99734.88
2023-01-15T12:47:52.375Z,99744.50
2023-01-15T12:50:47.134Z,99745.78
2023-01-15T12:53:45.634Z,99740.47
2023-01-15T12:56:45.668Z,99735.88
2023-01-15T12:59:44.935Z,99745.03
2023-01-15T13:02:28.235Z,99740.19
2023-01-15T13:05:19.015Z,99733.34
2023-01-15T13:08:35.531Z,99753.66
2023-01-15T13:11:13.038Z,99720.66
2023-01-15T13:13:58.273Z,99741.72
2023-01-15T13:17:15.387Z,99722.66
2023-01-15T13:20:31.900Z,99744.50
2023-01-15T13:23:44.980Z,99739.44
2023-01-15T13:26:55.205Z,99739.44
2023-01-15T13:29:49.034Z,99762.81
2023-01-15T13:32:30.494Z,99755.16
2023-01-15T13:35:28.951Z,99754.19
2023-01-15T13:38:14.870Z,99751.13
2023-01-15T13:40:53.300Z,99733.84
2023-01-15T13:43:39.180Z,99743.25
2023-01-15T13:46:21.354Z,99748.59
2023-01-15T13:48:54.092Z,99758.47
2023-01-15T13:51:43.700Z,99742.47
2023-01-15T13:54:31.154Z,99752.63
2023-01-15T13:57:41.208Z,99754.69
2023-01-15T14:00:33.262Z,99760.78
2023-01-15T14:03:30.603Z,99775.00
2023-01-15T14:06:09.405Z,99751.13
2023-01-15T14:08:55.493Z,99758.50
2023-01-15T14:11:52.135Z,99762.56
2023-01-15T14:15:08.562Z,99769.91
2023-01-15T14:18:10.275Z,99772.22
2023-01-15T14:21:11.101Z,99774.50
2023-01-15T14:24:12.407Z,99766.88
2023-01-15T14:27:12.827Z,99774.00
2023-01-15T14:30:00.353Z,99781.34
2023-01-15T14:33:11.194Z,99783.63
2023-01-15T14:35:48.017Z,99784.66
2023-01-15T14:38:27.752Z,99783.09
2023-01-15T14:41:06.710Z,99789.47
2023-01-15T14:43:49.375Z,99787.19
2023-01-15T14:46:34.108Z,99792.78
2023-01-15T14:49:31.520Z,99783.63
2023-01-15T14:52:04.392Z,99792.78
2023-01-15T14:54:39.924Z,99788.44
2023-01-15T14:57:16.300Z,99792.25
2023-01-15T14:59:58.205Z,99787.69
2023-01-15T15:02:44.126Z,99794.28
2023-01-15T15:05:22.198Z,99778.28
2023-01-15T15:07:55.399Z,99788.19
2023-01-15T15:10:41.222Z,99791.22
2023-01-15T15:13:34.658Z,99806.00
2023-01-15T15:16:28.413Z,99818.69
2023-01-15T15:19:25.124Z,99798.06
2023-01-15T15:22:03.456Z,99809.25
2023-01-15T15:24:43.376Z,99803.66
2023-01-15T15:27:18.660Z,99809.25
2023-01-15T15:29:51.374Z,99813.31
2023-01-15T15:32:25.670Z,99810.28
2023-01-15T15:34:58.515Z,99814.31
2023-01-15T15:37:32.847Z,99809.50
2023-01-15T15:40:17.576Z,99815.38
2023-01-15T15:43:35.952Z,99811.03
2023-01-15T15:46:44.622Z,99817.63
2023-01-15T15:49:20.274Z,99808.22
2023-01-15T15:51:55.744Z,99816.88
2023-01-15T15:54:29.790Z,99813.56
2023-01-15T15:57:18.048Z,99816.09
2023-01-15T15:59:53.315Z,99827.53
2023-01-15T16:02:41.416Z,99823.47
2023-01-15T16:05:29.332Z,99815.09
2023-01-15T16:08:20.298Z,99820.16
2023-01-15T16:10:57.705Z,99819.66
2023-01-15T16:13:36.486Z,99821.69
2023-01-15T16:16:11.268Z,99815.34
2023-01-15T16:18:52.932Z,99814.59
2023-01-15T16:21:37.297Z,99818.13
2023-01-15T16:24:25.733Z,99820.69
2023-01-15T16:27:13.087Z,99821.69
2023-01-15T16:29:52.733Z,99824.22
2023-01-15T16:32:33.158Z,99805.94
2023-01-15T16:35:19.635Z,99812.78
2023-01-15T16:37:59.694Z,99813.03
2023-01-15T16:40:40.127Z,99809.22
2023-01-15T16:43:22.175Z,99809.75
2023-01-15T16:46:16.493Z,99823.22
2023-01-15T16:48:49.184Z,99820.91
2023-01-15T16:51:36.019Z,99832.84
2023-01-15T16:54:31.305Z,99819.91
2023-01-15T16:57:27.323Z,99819.63
2023-01-15T17:00:05.320Z,99827.53
2023-01-15T17:02:46.683Z,99835.38
2023-01-15T17:05:25.719Z,99824.22
2023-01-15T17:13:38.374Z,99821.69
2023-01-15T17:16:18.563Z,99818.09
2023-01-15T17:18:51.848Z,99828.50
2023-01-15T17:21:28.659Z,99824.47
2023-01-15T17:24:04.161Z,99830.81
2023-01-15T17:26:36.748Z,99829.28
2023-01-15T17:29:12.390Z,99815.56
2023-01-15T17:31:45.863Z,99828.50
2023-01-15T17:34:23.559Z,99829.28
2023-01-15T17:37:04.865Z,99829.03
2023-01-15T17:39:38.558Z,99836.63
2023-01-15T17:42:18.357Z,99836.13
2023-01-15T17:44:50.952Z,99821.91
2023-01-15T17:47:23.594Z,99813.53
2023-01-15T17:49:56.237Z,99828.78
2023-01-15T17:52:29.175Z,99818.59
2023-01-15T17:55:20.586Z,99832.31
2023-01-15T17:58:11.751Z,99831.03
2023-01-15T18:01:04.633Z,99830.03
2023-01-15T18:04:04.443Z,99828.78
2023-01-15T18:06:37.725Z,99837.16
2023-01-15T18:09:10.419Z,99827.72
2023-01-15T18:11:43.003Z,99824.44
2023-01-15T18:14:30.573Z,99828.25
2023-01-15T18:17:03.233Z,99827.22
2023-01-15T18:19:41.785Z,99826.97
2023-01-15T18:22:14.507Z,99829.75
2023-01-15T18:24:49.251Z,99815.53
2023-01-15T18:27:21.979Z,99820.38
2023-01-15T18:29:54.546Z,99815.53
2023-01-15T18:32:33.530Z,99809.94
2023-01-15T18:35:07.220Z,99818.31
2023-01-15T18:37:39.734Z,99811.72
2023-01-15T18:40:12.897Z,99827.47
2023-01-15T18:43:04.465Z,99814.53
2023-01-15T18:45:56.102Z,99805.13
2023-01-15T18:48:40.424Z,99806.88
2023-01-15T18:51:12.989Z,99805.63
2023-01-15T18:53:49.112Z,99791.91
2023-01-15T18:56:40.099Z,99787.59
2023-01-15T18:59:15.243Z,99792.19
2023-01-15T19:01:50.756Z,99791.94
2023-01-15T19:04:23.563Z,99792.19
2023-01-15T19:07:02.285Z,99786.63
2023-01-15T19:09:36.746Z,99776.69
2023-01-15T19:12:09.510Z,99771.59
2023-01-15T19:15:00.580Z,99771.59
2023-01-15T19:17:51.886Z,99773.16
2023-01-15T19:20:24.411Z,99761.97
2023-01-15T19:23:06.868Z,99748.50
2023-01-15T19:25:57.401Z,99750.03
2023-01-15T19:28:30.104Z,99750.03
2023-01-15T19:31:28.518Z,99745.44
2023-01-15T19:34:31.491Z,99745.22
2023-01-15T19:36:58.841Z,99740.38
2023-01-15T19:39:31.938Z,99737.34
2023-01-15T19:42:23.158Z,99733.28
2023-01-15T19:45:14.680Z,99735.56
2023-01-15T19:48:07.686Z,99730.75
2023-01-15T19:50:46.532Z,99729.22
2023-01-15T19:53:19.929Z,99719.59
2023-01-15T19:55:52.868Z,99715.25
2023-01-15T19:58:25.631Z,99708.41
2023-01-15T20:00:58.280Z,99702.81
2023-01-15T20:03:31.348Z,99700.53
2023-01-15T20:06:08.426Z,99702.03
2023-01-15T20:08:55.124Z,99687.59
2023-01-15T20:14:59.125Z,99682.00
2023-01-15T20:17:32.920Z,99682.75
2023-01-15T20:20:12.406Z,99666.00
2023-01-15T20:25:32.428Z,99660.41
2023-01-15T20:28:05.167Z,99659.66
2023-01-15T20:30:40.287Z,99649.50
2023-01-15T20:33:27.985Z,99643.66
2023-01-15T20:36:12.511Z,99640.88
2023-01-15T20:38:57.100Z,99643.91
2023-01-15T20:41:48.012Z,99633.00
2023-01-15T20:44:39.137Z,99633.25
2023-01-15T20:47:30.235Z,99617.75
2023-01-15T20:50:03.084Z,99613.47
2023-01-15T20:52:37.386Z,99617.50
2023-01-15T20:55:16.002Z,99616.25
2023-01-15T20:57:48.660Z,99598.22
2023-01-15T21:00:22.964Z,99599.22
2023-01-15T21:03:01.782Z,99599.50
2023-01-15T21:05:34.374Z,99596.44
2023-01-15T21:08:07.010Z,99595.16
2023-01-15T21:10:40.318Z,99586.78
2023-01-15T21:13:12.936Z,99587.03
2023-01-15T21:15:52.358Z,99569.78
2023-01-15T21:18:28.140Z,99576.91
2023-01-15T21:21:00.743Z,99575.09
2023-01-15T21:23:33.399Z,99571.56
2023-01-15T21:26:06.760Z,99570.28
2023-01-15T21:28:39.690Z,99570.28
2023-01-15T21:31:14.182Z,99557.34
2023-01-15T21:33:46.903Z,99552.00
2023-01-15T21:36:19.452Z,99552.78
2023-01-15T21:38:54.455Z,99541.59
2023-01-15T21:41:47.951Z,99529.66
2023-01-15T21:44:35.126Z,99528.13
2023-01-15T21:47:15.671Z,99529.94
2023-01-15T21:49:48.973Z,99526.34
2023-01-15T21:52:21.911Z,99517.97
2023-01-15T21:54:54.480Z,99521.53
2023-01-15T21:57:29.928Z,99514.41
2023-01-15T22:00:02.892Z,99512.13
2023-01-15T22:02:36.136Z,99516.47
2023-01-15T22:05:09.304Z,99515.19
2023-01-15T22:07:42.092Z,99507.59
2023-01-15T22:10:15.116Z,99503.25
2023-01-15T22:12:47.732Z,99499.19
2023-01-15T22:15:20.305Z,99489.28
2023-01-15T22:17:53.868Z,99486.50
2023-01-15T22:20:29.215Z,99462.41
2023-01-15T22:23:01.923Z,99474.06
2023-01-15T22:25:34.614Z,99469.47
2023-01-15T22:28:07.213Z,99467.19
2023-01-15T22:30:39.803Z,99454.00
2023-01-15T22:33:12.474Z,99458.06
2023-01-15T22:36:00.209Z,99459.81
2023-01-15T22:38:32.998Z,99448.94
2023-01-15T22:41:05.747Z,99440.06
2023-01-15T22:43:38.343Z,99441.81
2023-01-15T22:46:13.936Z,99434.72
2023-01-15T22:48:46.604Z,99440.56
2023-01-15T22:51:19.138Z,99431.94
2023-01-15T22:53:54.422Z,99438.75
2023-01-15T22:56:27.188Z,99417.19
2023-01-15T22:58:59.747Z,99414.13
2023-01-15T23:01:33.421Z,99418.97
2023-01-15T23:04:18.027Z,99415.66
2023-01-15T23:06:52.735Z,99427.09
2023-01-15T23:09:25.359Z,99418.47
2023-01-15T23:11:58.022Z,99419.75
2023-01-15T23:14:30.690Z,99420.25
2023-01-15T23:17:03.254Z,99417.97
2023-01-15T23:19:35.976Z,99412.16
2023-01-15T23:22:08.465Z,99406.56
2023-01-15T23:24:41.001Z,99402.75
2023-01-15T23:27:14.076Z,99400.50
2023-01-15T23:29:46.760Z,99399.72
2023-01-15T23:32:19.354Z,99401.75
2023-01-15T23:34:51.895Z,99390.06
2023-01-15T23:37:24.447Z,99392.63
2023-01-15T23:39:57.050Z,99383.75
2023-01-15T23:42:48.643Z,99391.09
2023-01-15T23:45:39.932Z,99377.41
2023-01-15T23:48:12.683Z,99373.09
2023-01-15T23:50:45.347Z,99373.84
2023-01-15T23:53:18.001Z,99371.84
2023-01-15T23:55:50.672Z,99373.34
2023-01-15T23:58:23.355Z,99354.59
